Maribor, Slovenia

11:51 PM CEST on October 20, 2014 (GMT +0200)
Maribor | Change Station
CLOSE
Current Station
Airport
Location: Maribor,
Elevation: 869 ft
Nearby Weather Stations

Elev 869 ft 46.48 °N, 15.68 °E | Updated 21 minutes ago

Clear
Clear
55 °F
Feels Like 55 °F
N
0
Wind Variable Wind from North

Today
High -- | Low -- °F
--% Chance of Precip.
Yesterday
High -- | Low -- °F
Precip. -- in
7:21 AM 6:02 PM
Waning Crescent, 9% visible
Pressure 29.95 in
Visibility 5.0 miles
Clouds
Dew Point 54 °F
Humidity 94%
Rainfall 0.00 in
Snow Depth Not available.
UV Not available.
Pollen Not available.
Air Quality Not available.
Flu Activity Not available.
METAR LJMB 202130Z AUTO 00000KT 8000 NCD 13/12 Q1014

More Conditions Fewer Conditions

Pressure 29.95 in
Visibility 5.0 miles
Clouds
Dew Point 54 °F
Humidity 94%
Rainfall 0.00 in
Snow Depth Not available.
UV Not available.
Pollen Not available.
Air Quality Not available.
Flu Activity Not available.
METAR LJMB 202130Z AUTO 00000KT 8000 NCD 13/12 Q1014

More Conditions Fewer Conditions

10-Day Weather Forecast

Almanac

Astronomy

Oct. 20, 2014 Rise Set
Actual Time 7:21 AM CEST 6:02 PM CEST
Civil Twilight 6:50 AM CEST 6:32 PM CEST
Nautical Twilight 6:15 AM CEST 7:07 PM CEST
Astronomical Twilight 5:40 AM CEST 7:42 PM CEST
Moon 3:41 AM CEST 4:25 PM CEST
Length of Visible Light 11h 42m
Length of Day
10h 40m
Tomorrow will be 3m 9s shorter.
Waning Crescent, 9% of the Moon is Illuminated
Today
Waning Crescent
Oct 23
New
Oct 30
First Quarter
Nov 6
Full
Nov 14
Last Quarter

Today's Extremes

Country Highs Country Lows

Community

WunderPhotos

Upload Photos

1,763,527 photos uploaded!

WunderBlogs® & News

Nearby

Snow Depth

Not available.

Earthquake Activity

City Distance Mag. Time & Date
No recent earthquake activity has been reported nearby.
Minimum magnitude displayed is 2.5.

Coastal Water Temperatures

Place Temperature
No Stations Reporting

Nearby Weather Stations